createdAt,value
2023-07-19T00:00:28.631Z,29.78
2023-07-19T00:02:56.048Z,29.73
2023-07-19T00:05:24.018Z,29.50
2023-07-19T00:07:51.479Z,29.63
2023-07-19T00:10:19.002Z,29.77
2023-07-19T00:12:56.051Z,29.64
2023-07-19T00:15:25.414Z,29.36
2023-07-19T00:17:52.881Z,29.47
2023-07-19T00:20:21.090Z,29.29
2023-07-19T00:22:48.955Z,29.17
2023-07-19T00:25:17.019Z,28.92
2023-07-19T00:27:44.589Z,28.80
2023-07-19T00:30:12.491Z,29.14
2023-07-19T00:32:41.120Z,29.04
2023-07-19T00:35:08.681Z,29.05
2023-07-19T00:37:36.585Z,29.02
2023-07-19T00:40:04.880Z,28.71
2023-07-19T00:42:32.435Z,28.37
2023-07-19T00:45:00.265Z,28.49
2023-07-19T00:47:28.584Z,28.61
2023-07-19T00:49:56.480Z,28.92
2023-07-19T00:52:24.187Z,28.72
2023-07-19T00:54:51.636Z,29.02
2023-07-19T00:57:19.969Z,29.04
2023-07-19T00:59:47.937Z,29.26
2023-07-19T01:02:15.745Z,29.52
2023-07-19T01:04:43.145Z,29.41
2023-07-19T01:07:10.603Z,29.45
2023-07-19T01:09:38.001Z,29.45
2023-07-19T01:12:06.419Z,29.41
2023-07-19T01:14:34.317Z,29.34
2023-07-19T01:17:02.173Z,29.34
2023-07-19T01:19:31.721Z,29.33
2023-07-19T01:21:59.253Z,29.13
2023-07-19T01:24:27.199Z,29.10
2023-07-19T01:26:55.479Z,28.73
2023-07-19T01:29:25.354Z,28.46
2023-07-19T01:31:52.792Z,28.60
2023-07-19T01:34:20.135Z,28.59
2023-07-19T01:36:47.909Z,28.59
2023-07-19T01:39:15.330Z,28.94
2023-07-19T01:41:44.547Z,29.07
2023-07-19T01:44:11.968Z,28.72
2023-07-19T01:46:40.866Z,28.23
2023-07-19T01:49:08.768Z,28.17
2023-07-19T01:51:36.177Z,27.91
2023-07-19T01:54:03.531Z,27.81
2023-07-19T01:56:30.881Z,27.63
2023-07-19T01:58:58.658Z,27.61
2023-07-19T02:01:26.263Z,28.00
2023-07-19T02:03:54.158Z,28.26
2023-07-19T02:06:22.059Z,28.20
2023-07-19T02:08:49.812Z,27.95
2023-07-19T02:11:17.182Z,27.90
2023-07-19T02:13:46.659Z,27.83
2023-07-19T02:16:14.625Z,27.95
2023-07-19T02:18:43.809Z,27.80
2023-07-19T02:21:12.900Z,27.84
2023-07-19T02:23:40.922Z,27.44
2023-07-19T02:26:08.714Z,27.27
2023-07-19T02:28:36.138Z,27.41
2023-07-19T02:31:05.033Z,27.47
2023-07-19T02:33:32.467Z,27.27
2023-07-19T02:35:59.939Z,27.26
2023-07-19T02:38:27.828Z,27.17
2023-07-19T02:41:02.416Z,27.18
2023-07-19T02:43:30.467Z,27.16
2023-07-19T02:45:57.923Z,27.17
2023-07-19T02:48:26.455Z,27.34
2023-07-19T02:50:53.856Z,27.42
2023-07-19T02:53:21.642Z,27.42
2023-07-19T02:55:49.018Z,27.50
2023-07-19T02:58:16.496Z,27.28
2023-07-19T03:00:45.023Z,27.20
2023-07-19T03:03:13.220Z,27.56
2023-07-19T03:05:46.157Z,27.37
2023-07-19T03:08:13.798Z,27.32
2023-07-19T03:10:41.279Z,27.14
2023-07-19T03:13:09.711Z,27.10
2023-07-19T03:15:38.059Z,27.31
2023-07-19T03:18:06.008Z,27.16
2023-07-19T03:20:33.417Z,27.36
2023-07-19T03:23:02.196Z,27.46
2023-07-19T03:25:30.267Z,27.01
2023-07-19T03:27:58.941Z,27.14
2023-07-19T03:30:27.050Z,27.23
2023-07-19T03:32:54.886Z,27.33
2023-07-19T03:35:22.788Z,27.37
2023-07-19T03:37:50.820Z,27.48
2023-07-19T03:40:19.751Z,27.10
2023-07-19T03:42:47.566Z,26.90
2023-07-19T03:45:15.551Z,26.99
2023-07-19T03:47:44.531Z,26.91
2023-07-19T03:50:12.264Z,26.97
2023-07-19T03:52:40.963Z,26.93
2023-07-19T03:55:09.359Z,27.03
2023-07-19T03:57:38.958Z,27.09
2023-07-19T04:00:10.347Z,27.03
2023-07-19T04:02:46.987Z,27.01
2023-07-19T04:05:17.464Z,27.03
2023-07-19T04:07:45.144Z,26.91
2023-07-19T04:10:12.766Z,26.93
2023-07-19T04:12:40.187Z,27.01
2023-07-19T04:15:09.660Z,27.14
2023-07-19T04:17:37.306Z,27.24
2023-07-19T04:20:07.531Z,27.15
2023-07-19T04:22:35.322Z,27.09
2023-07-19T04:25:04.592Z,27.14
2023-07-19T04:27:32.642Z,27.28
2023-07-19T04:30:00.983Z,27.07
2023-07-19T04:32:28.504Z,27.08
2023-07-19T04:34:55.947Z,27.21
2023-07-19T04:37:23.890Z,27.22
2023-07-19T04:39:51.366Z,27.23
2023-07-19T04:42:22.657Z,27.28
2023-07-19T04:44:52.164Z,27.32
2023-07-19T04:47:21.945Z,27.16
2023-07-19T04:49:49.696Z,27.16
2023-07-19T04:52:17.460Z,27.40
2023-07-19T04:54:48.966Z,27.46
2023-07-19T04:57:17.119Z,27.42
2023-07-19T04:59:46.904Z,27.55
2023-07-19T05:02:14.712Z,27.65
2023-07-19T05:04:42.082Z,27.54
2023-07-19T05:07:09.823Z,27.50
2023-07-19T05:09:37.725Z,27.42
2023-07-19T05:12:06.065Z,27.62
2023-07-19T05:14:33.422Z,27.81
2023-07-19T05:17:02.529Z,27.99
2023-07-19T05:19:30.078Z,27.81
2023-07-19T05:21:58.121Z,27.86
2023-07-19T05:24:27.425Z,27.86
2023-07-19T05:26:55.695Z,28.06
2023-07-19T05:29:23.723Z,27.99
2023-07-19T05:31:51.169Z,27.86
2023-07-19T05:34:19.012Z,27.77
2023-07-19T05:36:46.371Z,28.11
2023-07-19T05:39:14.271Z,27.72
2023-07-19T05:41:41.703Z,28.33
2023-07-19T05:44:12.640Z,28.07
2023-07-19T05:46:40.863Z,28.11
2023-07-19T05:49:08.642Z,27.92
2023-07-19T05:51:35.997Z,27.81
2023-07-19T05:54:04.766Z,27.74
2023-07-19T05:56:32.331Z,27.46
2023-07-19T05:58:59.663Z,27.45
2023-07-19T06:01:30.540Z,27.51
2023-07-19T06:04:00.141Z,27.51
2023-07-19T06:06:27.722Z,27.29
2023-07-19T06:08:55.171Z,27.43
2023-07-19T06:11:22.686Z,27.47
2023-07-19T06:13:50.926Z,27.72
2023-07-19T06:16:18.644Z,27.56
2023-07-19T06:18:45.951Z,27.70
2023-07-19T06:21:13.314Z,27.91
2023-07-19T06:23:41.115Z,27.81
2023-07-19T06:26:09.096Z,27.90
2023-07-19T06:28:37.196Z,28.14
2023-07-19T06:31:04.634Z,28.38
2023-07-19T06:33:32.009Z,28.72
2023-07-19T06:35:59.412Z,28.53
2023-07-19T06:38:26.904Z,29.07
2023-07-19T06:40:54.228Z,28.92
2023-07-19T06:43:22.573Z,28.95
2023-07-19T06:45:50.567Z,28.98
2023-07-19T06:48:18.010Z,28.75
2023-07-19T06:50:45.334Z,28.77
2023-07-19T06:53:12.908Z,28.87
2023-07-19T06:55:40.675Z,28.66
2023-07-19T06:58:08.834Z,28.81
2023-07-19T07:00:37.009Z,29.54
2023-07-19T07:03:05.165Z,29.87
2023-07-19T07:05:34.477Z,29.57
2023-07-19T07:08:01.844Z,29.06
2023-07-19T07:10:29.728Z,29.60
2023-07-19T07:12:57.309Z,29.48
2023-07-19T07:15:24.946Z,29.40
2023-07-19T07:17:53.047Z,29.24
2023-07-19T07:20:20.906Z,29.28
2023-07-19T07:22:48.823Z,29.41
2023-07-19T07:25:16.678Z,29.78
2023-07-19T07:27:44.410Z,29.22
2023-07-19T07:30:11.804Z,29.17
2023-07-19T07:32:39.630Z,29.41
2023-07-19T07:35:07.889Z,29.79
2023-07-19T07:37:36.171Z,29.45
2023-07-19T07:40:04.464Z,29.65
2023-07-19T07:42:31.774Z,29.79
2023-07-19T07:44:59.518Z,29.42
2023-07-19T07:47:27.393Z,29.22
2023-07-19T07:49:57.128Z,29.38
2023-07-19T07:52:25.846Z,29.78
2023-07-19T07:54:53.613Z,29.95
2023-07-19T07:57:21.083Z,30.48
2023-07-19T07:59:48.502Z,30.24
2023-07-19T08:02:15.826Z,29.96
2023-07-19T08:04:43.564Z,29.70
2023-07-19T08:07:10.893Z,30.09
2023-07-19T08:09:38.628Z,30.26
2023-07-19T08:12:06.834Z,30.51
2023-07-19T08:14:34.253Z,30.47
2023-07-19T08:17:03.116Z,30.06
2023-07-19T08:19:30.666Z,29.95
2023-07-19T08:22:03.818Z,30.06
2023-07-19T08:24:31.388Z,30.39
2023-07-19T08:26:59.446Z,30.62
2023-07-19T08:29:29.935Z,30.24
2023-07-19T08:31:57.280Z,30.94
2023-07-19T08:34:24.908Z,31.12
2023-07-19T08:36:52.796Z,31.01
2023-07-19T08:39:20.078Z,31.04
2023-07-19T08:41:48.039Z,30.99
2023-07-19T08:44:15.875Z,31.27
2023-07-19T08:46:45.531Z,31.09
2023-07-19T08:49:13.713Z,31.34
2023-07-19T08:51:42.299Z,31.67
2023-07-19T08:54:09.883Z,31.43
2023-07-19T08:56:37.396Z,31.78
2023-07-19T08:59:05.573Z,31.56
2023-07-19T09:01:33.604Z,31.78
2023-07-19T09:04:01.876Z,32.06
2023-07-19T09:06:31.370Z,31.73
2023-07-19T09:08:59.222Z,31.98
2023-07-19T09:11:27.044Z,31.92
2023-07-19T09:13:56.662Z,31.96
2023-07-19T09:16:32.833Z,31.75
2023-07-19T09:19:02.002Z,31.50
2023-07-19T09:21:37.202Z,31.39
2023-07-19T09:24:06.468Z,31.44
2023-07-19T09:27:01.455Z,31.90
2023-07-19T09:29:32.359Z,32.20
2023-07-19T09:32:02.249Z,32.47
2023-07-19T09:34:39.758Z,32.52
2023-07-19T09:37:07.723Z,32.28
2023-07-19T09:39:36.628Z,32.37
2023-07-19T09:42:06.092Z,32.69
2023-07-19T09:44:34.976Z,32.26
2023-07-19T09:47:11.215Z,32.69
2023-07-19T09:49:46.368Z,32.96
2023-07-19T09:52:18.791Z,32.18
2023-07-19T09:54:47.072Z,32.78
2023-07-19T09:57:15.743Z,32.92
2023-07-19T09:59:49.535Z,33.19
2023-07-19T10:02:17.992Z,33.30
2023-07-19T10:04:49.073Z,33.45
2023-07-19T10:07:21.888Z,33.53
2023-07-19T10:09:52.564Z,33.19
2023-07-19T10:12:20.865Z,33.58
2023-07-19T10:14:55.504Z,33.37
2023-07-19T10:17:25.777Z,33.44
2023-07-19T10:20:14.001Z,33.30
2023-07-19T10:22:57.340Z,33.45
2023-07-19T10:25:29.064Z,33.49
2023-07-19T10:27:58.588Z,33.40
2023-07-19T10:30:45.199Z,33.99
2023-07-19T10:33:17.666Z,33.74
2023-07-19T10:35:45.339Z,33.77
2023-07-19T10:38:17.046Z,33.89
2023-07-19T10:40:47.564Z,33.88
2023-07-19T10:43:17.262Z,34.02
2023-07-19T10:45:50.817Z,34.11
2023-07-19T10:48:18.347Z,32.95
2023-07-19T10:50:47.807Z,33.50
2023-07-19T10:53:15.767Z,34.08
2023-07-19T10:55:53.538Z,34.42
2023-07-19T10:58:31.578Z,34.16
2023-07-19T11:00:59.719Z,34.42
2023-07-19T11:03:27.749Z,34.44
2023-07-19T11:05:55.961Z,34.29
2023-07-19T11:08:25.119Z,34.51
2023-07-19T11:10:55.982Z,35.10
2023-07-19T11:13:26.173Z,35.21
2023-07-19T11:15:55.822Z,35.29
2023-07-19T11:18:29.779Z,35.27
2023-07-19T11:20:59.649Z,35.62
2023-07-19T11:23:31.553Z,35.41
2023-07-19T11:26:07.001Z,35.82
2023-07-19T11:28:47.701Z,35.24
2023-07-19T11:31:34.126Z,35.60
2023-07-19T11:34:09.592Z,35.24
2023-07-19T11:36:42.116Z,35.58
2023-07-19T11:39:16.277Z,35.56
2023-07-19T11:41:45.630Z,35.69
2023-07-19T11:44:17.861Z,35.73
2023-07-19T11:46:46.026Z,35.91
2023-07-19T11:49:13.539Z,36.03
2023-07-19T11:51:42.186Z,36.56
2023-07-19T11:54:09.814Z,36.37
2023-07-19T11:56:37.936Z,36.59
2023-07-19T11:59:05.965Z,36.57
2023-07-19T12:01:34.002Z,36.63
2023-07-19T12:04:03.633Z,37.10
2023-07-19T12:06:32.259Z,36.76
2023-07-19T12:09:00.396Z,36.92
2023-07-19T12:11:27.983Z,36.70
2023-07-19T12:13:58.259Z,37.17
2023-07-19T12:16:26.914Z,36.89
2023-07-19T12:18:54.900Z,37.18
2023-07-19T12:21:23.506Z,37.32
2023-07-19T12:28:54.329Z,38.16
2023-07-19T12:31:21.958Z,38.19
2023-07-19T12:33:50.681Z,38.04
2023-07-19T12:36:18.579Z,38.29
2023-07-19T12:38:49.116Z,38.16
2023-07-19T12:41:17.762Z,37.98
2023-07-19T12:43:45.537Z,38.50
2023-07-19T12:46:13.084Z,38.60
2023-07-19T12:48:41.817Z,37.97
2023-07-19T12:51:09.370Z,38.46
2023-07-19T12:53:38.927Z,38.41
2023-07-19T12:56:07.901Z,38.95
2023-07-19T12:58:35.392Z,39.42
2023-07-19T13:01:03.475Z,39.13
2023-07-19T13:03:31.111Z,39.19
2023-07-19T13:05:59.020Z,39.39
2023-07-19T13:08:28.464Z,38.94
2023-07-19T13:10:56.287Z,38.92
2023-07-19T13:13:23.621Z,38.86
2023-07-19T13:15:50.940Z,39.54
2023-07-19T13:18:18.759Z,40.10
2023-07-19T13:20:46.145Z,39.65
2023-07-19T13:23:18.113Z,39.02
2023-07-19T13:25:46.543Z,39.33
2023-07-19T13:28:14.482Z,40.20
2023-07-19T13:30:42.451Z,40.41
2023-07-19T13:33:11.564Z,39.49
2023-07-19T13:38:10.075Z,39.10
2023-07-19T13:40:37.581Z,39.81
2023-07-19T13:43:05.309Z,40.70
2023-07-19T13:45:35.142Z,40.86
2023-07-19T13:48:02.698Z,40.32
2023-07-19T13:50:31.568Z,40.79
2023-07-19T13:53:00.480Z,40.70
2023-07-19T13:55:28.447Z,40.22
2023-07-19T13:57:55.863Z,41.28
2023-07-19T14:00:24.410Z,40.70
2023-07-19T14:02:53.359Z,40.73
2023-07-19T14:05:21.377Z,40.75
2023-07-19T14:07:49.094Z,41.08
2023-07-19T14:10:16.622Z,40.02
2023-07-19T14:12:45.007Z,40.70
2023-07-19T14:15:12.905Z,40.41
2023-07-19T14:17:41.485Z,40.48
2023-07-19T14:20:09.909Z,41.06
2023-07-19T14:22:38.097Z,40.83
2023-07-19T14:25:07.923Z,41.10
2023-07-19T14:27:38.081Z,41.77
2023-07-19T14:30:08.015Z,41.47
2023-07-19T14:32:36.192Z,41.64
2023-07-19T14:35:04.453Z,41.22
2023-07-19T14:37:32.197Z,41.98
2023-07-19T14:39:59.575Z,41.47
2023-07-19T14:42:27.923Z,41.22
2023-07-19T14:44:55.265Z,41.86
2023-07-19T14:47:23.511Z,42.69
2023-07-19T14:49:51.730Z,42.38
2023-07-19T14:52:21.119Z,42.22
2023-07-19T14:54:48.501Z,42.13
2023-07-19T14:57:16.474Z,42.53
2023-07-19T14:59:46.693Z,42.32
2023-07-19T15:02:33.072Z,44.76
2023-07-19T15:05:02.053Z,46.37
2023-07-19T15:07:30.579Z,48.40
2023-07-19T15:09:58.002Z,48.19
2023-07-19T15:12:25.806Z,45.33
2023-07-19T15:14:53.790Z,48.31
2023-07-19T15:17:21.382Z,48.38
2023-07-19T15:19:48.870Z,47.14
2023-07-19T15:22:16.595Z,48.75
2023-07-19T15:24:44.110Z,50.92
2023-07-19T15:27:11.662Z,51.90
2023-07-19T15:29:39.787Z,51.76
2023-07-19T15:32:07.885Z,50.57
2023-07-19T15:34:35.785Z,52.74
2023-07-19T15:37:03.393Z,52.96
2023-07-19T15:39:33.165Z,53.49
2023-07-19T15:42:00.844Z,53.03
2023-07-19T15:44:36.105Z,53.20
2023-07-19T15:47:05.845Z,53.53
2023-07-19T15:49:33.993Z,51.12
2023-07-19T15:52:02.103Z,49.03
2023-07-19T15:54:30.243Z,49.10
2023-07-19T15:56:57.929Z,51.33
2023-07-19T15:59:25.638Z,52.02
2023-07-19T16:01:54.354Z,52.91
2023-07-19T16:04:22.201Z,50.32
2023-07-19T16:06:49.507Z,50.15
2023-07-19T16:09:17.295Z,48.20
2023-07-19T16:11:45.081Z,47.64
2023-07-19T16:14:13.628Z,48.02
2023-07-19T16:16:41.088Z,49.32
2023-07-19T16:19:09.545Z,49.35
2023-07-19T16:21:38.289Z,48.80
2023-07-19T16:24:06.473Z,49.37
2023-07-19T16:26:34.390Z,50.20
2023-07-19T16:29:02.497Z,48.15
2023-07-19T16:31:30.276Z,48.33
2023-07-19T16:33:57.629Z,48.69
2023-07-19T16:36:25.301Z,48.38
2023-07-19T16:38:53.140Z,48.55
2023-07-19T16:41:21.569Z,47.94
2023-07-19T16:43:49.153Z,46.36
2023-07-19T16:46:16.798Z,44.76
2023-07-19T16:48:44.602Z,45.72
2023-07-19T16:51:12.462Z,47.50
2023-07-19T16:53:39.758Z,45.59
2023-07-19T16:56:07.495Z,45.72
2023-07-19T16:58:35.803Z,45.46
2023-07-19T17:01:03.165Z,45.52
2023-07-19T17:03:30.789Z,46.82
2023-07-19T17:05:58.791Z,46.69
2023-07-19T17:08:26.555Z,46.94
2023-07-19T17:10:54.030Z,45.54
2023-07-19T17:13:23.485Z,43.97
2023-07-19T17:15:53.516Z,42.03
2023-07-19T17:18:21.057Z,41.84
2023-07-19T17:20:49.036Z,41.57
2023-07-19T17:23:16.395Z,43.50
2023-07-19T17:25:44.463Z,43.28
2023-07-19T17:28:11.759Z,43.27
2023-07-19T17:30:41.920Z,43.53
2023-07-19T17:33:09.454Z,42.17
2023-07-19T17:35:36.893Z,41.12
2023-07-19T17:38:04.793Z,40.73
2023-07-19T17:40:32.193Z,40.50
2023-07-19T17:42:59.658Z,39.20
2023-07-19T17:45:27.947Z,39.14
2023-07-19T17:47:55.422Z,39.03
2023-07-19T17:50:23.343Z,37.94
2023-07-19T17:52:51.510Z,37.45
2023-07-19T17:55:18.964Z,36.97
2023-07-19T17:57:46.400Z,36.69
2023-07-19T18:00:14.250Z,36.36
2023-07-19T18:02:43.116Z,36.15
2023-07-19T18:05:11.033Z,36.05
2023-07-19T18:07:38.387Z,35.97
2023-07-19T18:10:06.026Z,36.29
2023-07-19T18:12:33.987Z,36.43
2023-07-19T18:15:04.806Z,36.13
2023-07-19T18:17:32.714Z,36.13
2023-07-19T18:20:00.476Z,36.09
2023-07-19T18:22:29.114Z,36.08
2023-07-19T18:24:56.774Z,35.75
2023-07-19T18:27:24.124Z,35.45
2023-07-19T18:29:52.240Z,35.54
2023-07-19T18:32:20.031Z,35.53
2023-07-19T18:34:48.487Z,35.48
2023-07-19T18:37:15.981Z,35.35
2023-07-19T18:39:43.899Z,35.45
2023-07-19T18:42:14.263Z,35.34
2023-07-19T18:44:42.020Z,35.36
2023-07-19T18:47:09.440Z,35.17
2023-07-19T18:49:36.727Z,34.97
2023-07-19T18:52:05.292Z,35.04
2023-07-19T18:54:33.095Z,34.95
2023-07-19T18:57:00.848Z,34.95
2023-07-19T18:59:28.819Z,34.70
2023-07-19T19:01:56.260Z,34.66
2023-07-19T19:04:23.590Z,34.77
2023-07-19T19:06:50.892Z,34.67
2023-07-19T19:09:18.253Z,34.78
2023-07-19T19:11:46.049Z,34.61
2023-07-19T19:14:13.384Z,34.36
2023-07-19T19:16:40.768Z,33.98
2023-07-19T19:19:10.954Z,32.97
2023-07-19T19:21:39.318Z,32.87
2023-07-19T19:24:09.064Z,33.28
2023-07-19T19:26:37.804Z,33.16
2023-07-19T19:29:05.577Z,32.86
2023-07-19T19:31:34.072Z,33.16
2023-07-19T19:34:02.270Z,32.82
2023-07-19T19:36:29.676Z,33.10
2023-07-19T19:38:58.704Z,32.75
2023-07-19T19:41:27.101Z,33.04
2023-07-19T19:43:54.527Z,32.99
2023-07-19T19:46:22.218Z,33.05
2023-07-19T19:48:50.031Z,32.94
2023-07-19T19:51:17.502Z,33.30
2023-07-19T19:53:45.225Z,33.07
2023-07-19T19:58:45.251Z,32.94
2023-07-19T20:01:14.756Z,32.95
2023-07-19T20:03:42.615Z,32.87
2023-07-19T20:06:10.164Z,32.75
2023-07-19T20:08:37.647Z,32.84
2023-07-19T20:11:06.318Z,32.76
2023-07-19T20:13:33.716Z,32.41
2023-07-19T20:16:02.070Z,32.23
2023-07-19T20:21:00.591Z,32.33
2023-07-19T20:23:28.302Z,32.20
2023-07-19T20:26:11.004Z,32.12
2023-07-19T20:28:40.444Z,32.32
2023-07-19T20:31:08.155Z,32.32
2023-07-19T20:33:38.609Z,32.60
2023-07-19T20:36:07.168Z,32.63
2023-07-19T20:43:36.726Z,32.73
2023-07-19T20:48:36.182Z,32.34
2023-07-19T20:51:13.975Z,32.21
2023-07-19T20:53:41.617Z,32.22
2023-07-19T20:56:09.454Z,32.10
2023-07-19T20:58:36.896Z,32.08
2023-07-19T21:01:05.263Z,32.20
2023-07-19T21:03:34.080Z,32.30
2023-07-19T21:06:02.814Z,32.37
2023-07-19T21:08:30.701Z,32.46
2023-07-19T21:10:58.797Z,32.33
